Cedaredge, CO

7:14 PM MDT on October 31, 2014 (GMT -0600)
Coon Creek | Change Station
CLOSE
Current Station
Personal Weather Station
Location: Mesa, CO
Elevation: 8050 ft
Nearby Weather Stations
Active Advisory: Special Statement

Elev 8050 ft 39.09 °N, 108.10 °W | Updated 4 minutes ago

Partly Cloudy
Partly Cloudy
51.2 °F
Feels Like 51.2 °F
N
2.0
Wind Variable Wind from North

Today
High -- | Low -- °F
--% Chance of Precip.
Yesterday
High -- | Low -- °F
Precip. -- in
7:37 AM 6:12 PM
First Quarter, 61% visible
Pressure 30.01 in
Visibility 10.0 miles
Clouds Clear
Dew Point 26 °F
Humidity 37%
Rainfall 0.00 in
Snow Depth Not available.
UV 0 out of 12
Pollen 1.40 out of 12
Air Quality Not available.
Flu Activity Not available.
METAR KMTJ 010053Z AUTO 13003KT 10SM CLR 13/00 A3010 RMK AO2 SLP163 T01280000

More Conditions Fewer Conditions

Pressure 30.01 in
Visibility 10.0 miles
Clouds Clear
Dew Point 26 °F
Humidity 37%
Rainfall 0.00 in
Snow Depth Not available.
UV 0 out of 12
Pollen 1.40 out of 12
Air Quality Not available.
Flu Activity Not available.
METAR KMTJ 010053Z AUTO 13003KT 10SM CLR 13/00 A3010 RMK AO2 SLP163 T01280000

More Conditions Fewer Conditions

10-Day Weather Forecast

Almanac

Astronomy

Oct. 31, 2014 Rise Set
Actual Time
Civil Twilight
Nautical Twilight
Astronomical Twilight
Moon
Length of Visible Light
Length of Day
Tomorrow will be .
, % of the Moon is Illuminated

Today's Extremes

State Highs State Lows

Community

WunderPhotos

Upload Photos

1,766,798 photos uploaded!

WunderBlogs® & News

Nearby

Air Quality

  Air Quality AQ Index Pollutant
Not available.

Snow Depth

Station Depth Elevation

Earthquake Activity

City Distance Mag. Time & Date
Minimum magnitude displayed is 2.5.

Coastal Water Temperatures

Place Temperature

Nearby Weather Stations